Time;durP1;ratioP1;P1;durP2;ratioP2;P2;SDS_P1;SDS_P2;PMS_P1;PMS_P2;Temp;Humidity;BMP_temperature;BMP_pressure;BME280_temperature;BME280_humidity;BME280_pressure;Samples;Min_cycle;Max_cycle;Signal;HPM_P1;HPM_P2
2023/08/26 00:02:10;;;;;;;50.07;33.70;;;;;;;;;;2614747;54;20932;-69
2023/08/26 00:07:40;;;;;;;46.93;33.03;;;;;;;;;;2613643;54;20355;-70
2023/08/26 00:13:10;;;;;;;43.63;32.20;;;;;;;;;;2614711;54;20479;-69
2023/08/26 00:18:39;;;;;;;51.60;32.50;;;;;;;;;;2614519;54;20921;-70
2023/08/26 00:24:10;;;;;;;47.53;33.73;;;;;;;;;;2614234;54;20934;-69
2023/08/26 00:29:41;;;;;;;44.70;33.00;;;;;;;;;;2614241;54;20387;-69
2023/08/26 00:35:11;;;;;;;43.90;33.53;;;;;;;;;;2614335;54;20367;-70
2023/08/26 00:40:41;;;;;;;43.47;31.33;;;;;;;;;;2614302;54;20395;-70
2023/08/26 00:46:10;;;;;;;49.77;34.53;;;;;;;;;;2614677;54;20446;-72
2023/08/26 00:51:40;;;;;;;50.60;33.83;;;;;;;;;;2614154;54;20459;-72
2023/08/26 00:57:09;;;;;;;52.23;34.50;;;;;;;;;;2615177;54;20391;-72
2023/08/26 01:02:39;;;;;;;61.13;35.23;;;;;;;;;;2615504;54;20383;-72
2023/08/26 01:08:09;;;;;;;60.53;38.40;;;;;;;;;;2614750;54;20398;-72
2023/08/26 01:13:48;;;;;;;48.73;35.43;;;;;;;;;;2615005;54;20375;-73
2023/08/26 01:31:22;;;;;;;39.50;28.13;;;;;;;;;;2614913;54;20463;-72
2023/08/26 01:36:52;;;;;;;39.70;26.77;;;;;;;;;;2614818;54;20380;-74
2023/08/26 01:42:24;;;;;;;35.60;26.30;;;;;;;;;;2615206;54;20386;-74
2023/08/26 01:47:54;;;;;;;43.83;26.23;;;;;;;;;;2615421;54;20387;-73
2023/08/26 01:53:23;;;;;;;27.80;21.43;;;;;;;;;;2615129;54;20406;-74
2023/08/26 01:58:53;;;;;;;24.97;20.67;;;;;;;;;;2614838;46;20374;-74
2023/08/26 02:04:22;;;;;;;25.87;19.57;;;;;;;;;;2615294;54;20862;-74
2023/08/26 02:09:52;;;;;;;28.57;20.10;;;;;;;;;;2614386;54;20881;-74
2023/08/26 02:15:22;;;;;;;26.53;21.43;;;;;;;;;;2614873;54;20965;-74
2023/08/26 02:20:51;;;;;;;29.57;20.87;;;;;;;;;;2614210;54;20877;-73
2023/08/26 02:29:59;;;;;;;12.80;8.60;;;;;;;;;;2614333;54;20390;-74
2023/08/26 02:35:29;;;;;;;15.53;4.57;;;;;;;;;;2614009;54;20418;-75
2023/08/26 02:40:59;;;;;;;5.40;3.20;;;;;;;;;;2613847;54;20445;-74
2023/08/26 02:46:29;;;;;;;7.27;3.67;;;;;;;;;;2615621;39;20736;-75
2023/08/26 02:51:59;;;;;;;4.97;2.93;;;;;;;;;;2614219;54;20382;-74
2023/08/26 02:57:28;;;;;;;6.37;4.03;;;;;;;;;;2614705;54;20492;-73
2023/08/26 03:02:58;;;;;;;3.33;3.00;;;;;;;;;;2615346;39;20734;-74
2023/08/26 03:05:43;;;;;;;6.20;3.50;;;;;;;;;;2614860;54;20423;-73
2023/08/26 03:08:09;;;;;;;4.63;2.97;;;;;;;;;;2613984;54;21048;-72
2023/08/26 03:13:39;;;;;;;3.77;2.60;;;;;;;;;;2615030;39;20769;-74
2023/08/26 03:19:08;;;;;;;5.10;2.87;;;;;;;;;;2614671;54;20359;-72
2023/08/26 03:24:38;;;;;;;5.13;3.30;;;;;;;;;;2615677;39;20743;-73
2023/08/26 03:33:46;;;;;;;4.00;3.20;;;;;;;;;;2614673;39;20770;-72
2023/08/26 03:39:15;;;;;;;7.10;3.87;;;;;;;;;;2614410;54;20406;-72
2023/08/26 03:44:45;;;;;;;4.27;3.13;;;;;;;;;;2614834;54;20414;-72
2023/08/26 03:50:15;;;;;;;5.60;3.50;;;;;;;;;;2614481;54;20391;-73
2023/08/26 03:55:45;;;;;;;16.73;3.80;;;;;;;;;;2614453;54;20386;-73
2023/08/26 04:01:14;;;;;;;5.10;3.07;;;;;;;;;;2614805;54;20415;-72
2023/08/26 04:06:44;;;;;;;12.67;3.50;;;;;;;;;;2614632;54;20374;-73
2023/08/26 04:12:14;;;;;;;5.90;3.30;;;;;;;;;;2614673;54;20566;-72
2023/08/26 04:17:44;;;;;;;5.67;3.20;;;;;;;;;;2616010;54;20453;-70
2023/08/26 04:23:13;;;;;;;8.03;3.70;;;;;;;;;;2615632;54;20394;-70
2023/08/26 04:28:43;;;;;;;9.80;2.93;;;;;;;;;;2616125;54;20415;-71
2023/08/26 04:34:13;;;;;;;5.93;3.70;;;;;;;;;;2615663;54;20387;-71
2023/08/26 04:39:42;;;;;;;6.20;3.50;;;;;;;;;;2616737;54;20407;-70
2023/08/26 04:45:15;;;;;;;6.83;3.60;;;;;;;;;;2617208;39;20761;-69
2023/08/26 04:50:44;;;;;;;5.53;3.20;;;;;;;;;;2615244;54;20391;-73
2023/08/26 04:56:15;;;;;;;8.17;4.23;;;;;;;;;;2615697;54;20382;-73
2023/08/26 05:01:45;;;;;;;6.33;3.70;;;;;;;;;;2615301;54;20974;-72
2023/08/26 05:07:15;;;;;;;9.93;4.00;;;;;;;;;;2615539;39;20778;-74
2023/08/26 05:12:44;;;;;;;8.33;4.03;;;;;;;;;;2615178;39;20998;-74
2023/08/26 05:18:18;;;;;;;8.30;4.13;;;;;;;;;;2615425;54;20414;-73
2023/08/26 05:23:48;;;;;;;8.70;4.37;;;;;;;;;;2615110;54;20492;-74
2023/08/26 05:29:17;;;;;;;4.53;3.30;;;;;;;;;;2615773;54;20386;-73
2023/08/26 05:34:47;;;;;;;8.87;4.50;;;;;;;;;;2615812;54;20910;-73
2023/08/26 05:40:16;;;;;;;11.67;4.67;;;;;;;;;;2614743;54;20464;-74
2023/08/26 05:45:46;;;;;;;7.70;4.23;;;;;;;;;;2615410;54;20447;-73
2023/08/26 05:51:16;;;;;;;6.13;3.13;;;;;;;;;;2615225;54;20351;-74
2023/08/26 05:56:46;;;;;;;8.50;3.80;;;;;;;;;;2615627;54;20500;-74
2023/08/26 06:02:15;;;;;;;5.10;4.23;;;;;;;;;;2615205;54;20439;-76
2023/08/26 06:07:45;;;;;;;6.73;4.10;;;;;;;;;;2615146;54;20378;-73
2023/08/26 06:13:15;;;;;;;4.30;3.90;;;;;;;;;;2614262;54;21427;-73
2023/08/26 06:18:44;;;;;;;9.30;4.33;;;;;;;;;;2615034;54;20391;-74
2023/08/26 06:24:14;;;;;;;5.10;4.60;;;;;;;;;;2615075;54;20418;-73
2023/08/26 06:35:50;;;;;;;7.83;3.63;;;;;;;;;;2615271;39;21967;-74
2023/08/26 06:41:20;;;;;;;4.50;4.07;;;;;;;;;;2614006;54;20414;-75
2023/08/26 06:46:49;;;;;;;5.73;4.07;;;;;;;;;;2615271;46;20405;-75
2023/08/26 06:52:19;;;;;;;4.07;3.77;;;;;;;;;;2614230;54;20454;-73
2023/08/26 06:57:49;;;;;;;7.60;3.93;;;;;;;;;;2614967;54;20487;-74
2023/08/26 07:03:18;;;;;;;11.70;4.53;;;;;;;;;;2614511;54;20375;-74
2023/08/26 07:08:48;;;;;;;4.57;4.17;;;;;;;;;;2613642;54;20430;-74
2023/08/26 07:14:17;;;;;;;7.70;4.17;;;;;;;;;;2614946;54;20379;-74
2023/08/26 07:19:47;;;;;;;4.23;3.93;;;;;;;;;;2614780;54;20909;-74
2023/08/26 07:25:17;;;;;;;4.47;4.07;;;;;;;;;;2614198;54;20896;-75
2023/08/26 07:34:19;;;;;;;4.10;3.70;;;;;;;;;;2614582;54;20402;-74
2023/08/26 07:39:52;;;;;;;4.50;4.10;;;;;;;;;;2613925;54;20391;-75
2023/08/26 07:45:21;;;;;;;5.70;4.20;;;;;;;;;;2614588;54;20940;-73
2023/08/26 07:50:51;;;;;;;4.90;4.40;;;;;;;;;;2615087;54;20371;-74
2023/08/26 07:56:21;;;;;;;5.10;4.63;;;;;;;;;;2614280;54;20351;-75
2023/08/26 08:01:51;;;;;;;4.93;4.47;;;;;;;;;;2614271;54;20363;-74
2023/08/26 08:07:20;;;;;;;4.93;4.53;;;;;;;;;;2614431;54;20384;-74
2023/08/26 08:12:51;;;;;;;4.60;4.20;;;;;;;;;;2614643;54;20387;-74
2023/08/26 08:18:20;;;;;;;7.73;4.83;;;;;;;;;;2614698;54;20363;-74
2023/08/26 08:23:50;;;;;;;5.80;4.80;;;;;;;;;;2614270;31;20859;-74
2023/08/26 08:29:20;;;;;;;8.37;5.30;;;;;;;;;;2614250;54;20419;-73
2023/08/26 08:34:49;;;;;;;5.33;5.03;;;;;;;;;;2614426;54;20454;-74
2023/08/26 08:40:19;;;;;;;9.17;4.90;;;;;;;;;;2614247;39;20445;-74
2023/08/26 08:45:50;;;;;;;6.27;4.60;;;;;;;;;;2614520;54;20391;-74
2023/08/26 08:51:21;;;;;;;4.97;4.57;;;;;;;;;;2614532;54;20897;-74
2023/08/26 08:56:51;;;;;;;6.07;5.47;;;;;;;;;;2613719;54;20367;-74
2023/08/26 09:02:22;;;;;;;6.50;5.77;;;;;;;;;;2614860;54;20921;-75
2023/08/26 09:07:52;;;;;;;5.43;4.90;;;;;;;;;;2614784;54;20351;-74
2023/08/26 09:13:21;;;;;;;5.57;5.10;;;;;;;;;;2612512;39;20845;-73
2023/08/26 09:18:55;;;;;;;5.97;5.40;;;;;;;;;;2612924;54;20455;-74
2023/08/26 09:24:24;;;;;;;5.83;5.40;;;;;;;;;;2612609;54;20968;-75
2023/08/26 09:29:54;;;;;;;5.70;5.30;;;;;;;;;;2612447;54;20403;-73
2023/08/26 09:41:31;;;;;;;5.70;5.30;;;;;;;;;;2612286;54;20411;-73
2023/08/26 09:47:02;;;;;;;5.70;5.30;;;;;;;;;;2614339;54;20375;-74
2023/08/26 09:52:48;;;;;;;6.00;5.60;;;;;;;;;;2613270;54;20395;-73
2023/08/26 09:58:17;;;;;;;6.33;5.90;;;;;;;;;;2612797;54;20367;-74
2023/08/26 10:03:51;;;;;;;6.20;5.80;;;;;;;;;;2612591;54;20480;-74
2023/08/26 10:09:34;;;;;;;5.70;5.30;;;;;;;;;;2611576;54;20431;-72
2023/08/26 10:15:04;;;;;;;6.27;5.87;;;;;;;;;;2611383;54;20347;-72
2023/08/26 10:20:35;;;;;;;6.70;6.30;;;;;;;;;;2611579;54;20981;-74
2023/08/26 10:26:05;;;;;;;6.70;6.40;;;;;;;;;;2611418;54;20414;-73
2023/08/26 10:31:43;;;;;;;7.10;6.70;;;;;;;;;;2611519;54;20427;-73
2023/08/26 10:34:37;;;;;;;7.20;6.67;;;;;;;;;;2612615;54;20400;-73
2023/08/26 10:37:04;;;;;;;6.60;6.20;;;;;;;;;;2611314;54;20412;-73
2023/08/26 10:42:33;;;;;;;6.60;6.30;;;;;;;;;;2613219;39;20474;-72
2023/08/26 10:48:03;;;;;;;6.40;5.93;;;;;;;;;;2611708;54;20362;-72
2023/08/26 10:59:35;;;;;;;7.37;7.00;;;;;;;;;;2611321;54;20390;-73
2023/08/26 11:05:05;;;;;;;7.57;7.17;;;;;;;;;;2611855;54;20391;-72
2023/08/26 11:10:39;;;;;;;7.60;7.30;;;;;;;;;;2611486;54;20354;-72
2023/08/26 11:16:08;;;;;;;8.27;7.57;;;;;;;;;;2611667;54;20407;-73
2023/08/26 11:21:39;;;;;;;7.40;7.00;;;;;;;;;;2612642;39;20457;-73
2023/08/26 11:27:10;;;;;;;8.73;8.23;;;;;;;;;;2612488;39;20798;-74
2023/08/26 11:32:40;;;;;;;8.20;7.80;;;;;;;;;;2611880;54;20394;-74
2023/08/26 11:41:54;;;;;;;8.20;7.73;;;;;;;;;;2611938;54;20454;-73
2023/08/26 11:47:24;;;;;;;7.27;6.90;;;;;;;;;;2612583;54;20398;-71
2023/08/26 11:52:54;;;;;;;7.83;7.43;;;;;;;;;;2612077;39;20757;-72
2023/08/26 11:58:25;;;;;;;7.67;7.30;;;;;;;;;;2611717;54;20367;-71
2023/08/26 12:03:58;;;;;;;8.70;8.30;;;;;;;;;;2611709;54;20351;-71
2023/08/26 12:09:27;;;;;;;7.90;7.60;;;;;;;;;;2611649;39;20782;-69
2023/08/26 12:20:54;;;;;;;8.57;8.10;;;;;;;;;;2611260;54;20889;-69
2023/08/26 12:26:24;;;;;;;8.63;8.13;;;;;;;;;;2611260;54;20387;-70
2023/08/26 12:31:53;;;;;;;9.20;8.50;;;;;;;;;;2611232;54;20362;-72
2023/08/26 12:37:23;;;;;;;9.57;8.80;;;;;;;;;;2612171;39;20752;-73
2023/08/26 12:42:53;;;;;;;9.60;9.10;;;;;;;;;;2610993;54;20351;-73
2023/08/26 12:48:23;;;;;;;9.27;8.87;;;;;;;;;;2611454;54;20378;-71
2023/08/26 12:53:53;;;;;;;9.53;9.13;;;;;;;;;;2613248;39;20721;-69
2023/08/26 12:59:23;;;;;;;9.87;9.37;;;;;;;;;;2612419;46;20398;-70
2023/08/26 13:04:52;;;;;;;9.80;9.07;;;;;;;;;;2612466;54;20358;-71
2023/08/26 13:10:22;;;;;;;8.73;8.43;;;;;;;;;;2613802;39;20738;-70
2023/08/26 13:15:52;;;;;;;9.00;8.60;;;;;;;;;;2612399;54;20394;-71
2023/08/26 13:21:21;;;;;;;8.80;8.40;;;;;;;;;;2612109;54;20391;-70
2023/08/26 13:26:51;;;;;;;9.67;9.07;;;;;;;;;;2612669;54;20387;-71
2023/08/26 13:32:21;;;;;;;9.23;8.73;;;;;;;;;;2612864;39;20751;-71
2023/08/26 13:43:57;;;;;;;8.43;8.03;;;;;;;;;;2612226;54;20933;-73
2023/08/26 13:49:27;;;;;;;8.60;8.20;;;;;;;;;;2612983;54;20552;-74
2023/08/26 13:54:56;;;;;;;8.80;8.40;;;;;;;;;;2612442;54;20371;-73
2023/08/26 14:00:26;;;;;;;9.20;8.80;;;;;;;;;;2611724;54;20375;-73
2023/08/26 14:05:56;;;;;;;8.37;7.97;;;;;;;;;;2612142;39;21249;-74
2023/08/26 14:11:27;;;;;;;10.40;9.90;;;;;;;;;;2612167;39;20815;-74
2023/08/26 14:16:56;;;;;;;8.73;8.33;;;;;;;;;;2611443;54;20398;-73
2023/08/26 14:22:26;;;;;;;9.63;9.23;;;;;;;;;;2611189;54;20390;-72
2023/08/26 14:27:56;;;;;;;10.40;9.80;;;;;;;;;;2611606;46;20463;-72
2023/08/26 14:33:26;;;;;;;10.23;9.73;;;;;;;;;;2611297;54;20379;-73
2023/08/26 14:42:36;;;;;;;10.50;9.80;;;;;;;;;;2611524;54;20651;-72
2023/08/26 14:48:06;;;;;;;9.60;9.20;;;;;;;;;;2611735;54;20386;-74
2023/08/26 14:53:36;;;;;;;10.53;9.83;;;;;;;;;;2611331;54;20941;-75
2023/08/26 14:59:05;;;;;;;10.50;10.00;;;;;;;;;;2611610;54;20391;-76
2023/08/26 15:04:36;;;;;;;11.40;10.90;;;;;;;;;;2610742;54;20395;-75
2023/08/26 15:10:06;;;;;;;10.53;9.90;;;;;;;;;;2611953;54;20511;-74
2023/08/26 15:15:35;;;;;;;9.97;9.37;;;;;;;;;;2612357;46;20402;-73
2023/08/26 15:21:06;;;;;;;9.67;9.27;;;;;;;;;;2612481;31;20868;-75
2023/08/26 15:26:35;;;;;;;10.73;10.33;;;;;;;;;;2612260;54;21399;-73
2023/08/26 15:32:05;;;;;;;9.80;9.40;;;;;;;;;;2612288;46;20390;-75
2023/08/26 15:37:35;;;;;;;9.50;9.10;;;;;;;;;;2611877;54;20963;-74
2023/08/26 15:43:05;;;;;;;10.03;9.57;;;;;;;;;;2613152;39;20734;-74
2023/08/26 15:48:34;;;;;;;10.60;10.07;;;;;;;;;;2611917;54;20996;-75
2023/08/26 15:54:04;;;;;;;10.20;9.70;;;;;;;;;;2611637;54;20367;-74
2023/08/26 15:59:34;;;;;;;9.30;8.90;;;;;;;;;;2611911;54;20777;-74
2023/08/26 16:05:04;;;;;;;10.30;9.70;;;;;;;;;;2614157;54;20375;-74
2023/08/26 16:10:34;;;;;;;10.77;10.17;;;;;;;;;;2615237;54;20897;-74
2023/08/26 16:16:03;;;;;;;10.27;9.87;;;;;;;;;;2614980;54;20391;-74
2023/08/26 16:21:33;;;;;;;12.53;11.63;;;;;;;;;;2614289;54;20426;-75
2023/08/26 16:27:02;;;;;;;11.40;10.90;;;;;;;;;;2616487;54;20402;-75
2023/08/26 16:32:32;;;;;;;11.30;10.80;;;;;;;;;;2616895;54;20454;-75
2023/08/26 16:38:03;;;;;;;11.07;10.53;;;;;;;;;;2616551;54;20390;-75
2023/08/26 16:52:58;;;;;;;10.70;10.20;;;;;;;;;;2614813;54;20423;-75
2023/08/26 16:58:27;;;;;;;14.27;13.33;;;;;;;;;;2614791;54;20351;-74
2023/08/26 17:03:55;;;;;;;11.60;11.00;;;;;;;;;;2614466;54;20395;-74
2023/08/26 17:09:26;;;;;;;11.00;10.40;;;;;;;;;;2614449;54;20424;-72
2023/08/26 17:14:55;;;;;;;11.50;11.00;;;;;;;;;;2614165;54;20490;-73
2023/08/26 17:20:24;;;;;;;12.00;11.40;;;;;;;;;;2614569;54;20417;-75
2023/08/26 17:25:53;;;;;;;12.10;11.33;;;;;;;;;;2615165;46;20382;-71
2023/08/26 17:31:23;;;;;;;11.40;10.90;;;;;;;;;;2616468;54;20917;-74
2023/08/26 17:36:53;;;;;;;10.03;9.53;;;;;;;;;;2615002;54;20745;-75
2023/08/26 17:42:22;;;;;;;11.27;10.67;;;;;;;;;;2612821;54;20523;-75
2023/08/26 17:47:52;;;;;;;10.80;10.30;;;;;;;;;;2612375;54;20446;-74
2023/08/26 17:53:22;;;;;;;12.57;11.87;;;;;;;;;;2612496;46;20398;-75
2023/08/26 17:58:52;;;;;;;12.70;11.90;;;;;;;;;;2612354;54;20351;-74
2023/08/26 18:04:22;;;;;;;11.50;10.90;;;;;;;;;;2611977;54;20383;-74
2023/08/26 18:09:52;;;;;;;12.27;11.57;;;;;;;;;;2612507;54;20354;-74
2023/08/26 18:15:22;;;;;;;11.80;11.10;;;;;;;;;;2611679;54;21039;-74
2023/08/26 18:20:51;;;;;;;13.10;12.40;;;;;;;;;;2615608;54;20898;-74
2023/08/26 18:26:21;;;;;;;10.90;10.40;;;;;;;;;;2614841;54;20422;-74
2023/08/26 18:31:50;;;;;;;13.33;12.53;;;;;;;;;;2611787;54;20510;-75
2023/08/26 18:37:20;;;;;;;12.97;12.20;;;;;;;;;;2613858;54;21040;-74
2023/08/26 18:48:57;;;;;;;10.93;10.43;;;;;;;;;;2611546;54;20355;-72
2023/08/26 18:54:27;;;;;;;12.10;11.20;;;;;;;;;;2611559;54;20404;-73
2023/08/26 18:59:57;;;;;;;12.23;11.47;;;;;;;;;;2611568;54;20370;-73
2023/08/26 19:05:26;;;;;;;15.10;13.77;;;;;;;;;;2611330;54;20391;-72
2023/08/26 19:10:56;;;;;;;17.17;15.77;;;;;;;;;;2611376;54;20395;-73
2023/08/26 19:16:26;;;;;;;15.47;14.27;;;;;;;;;;2612869;39;20743;-74
2023/08/26 19:21:56;;;;;;;14.23;13.30;;;;;;;;;;2611028;54;20563;-72
2023/08/26 19:27:25;;;;;;;13.10;12.20;;;;;;;;;;2614435;54;20395;-73
2023/08/26 19:32:55;;;;;;;10.63;9.93;;;;;;;;;;2611644;54;20379;-74
2023/08/26 19:38:25;;;;;;;9.57;9.07;;;;;;;;;;2611221;39;20938;-71
2023/08/26 19:53:18;;;;;;;10.90;10.10;;;;;;;;;;2610014;54;20921;-72
2023/08/26 19:58:47;;;;;;;10.10;9.40;;;;;;;;;;2609281;54;20410;-74
2023/08/26 20:04:16;;;;;;;12.77;11.33;;;;;;;;;;2609535;54;20503;-74
2023/08/26 20:09:46;;;;;;;11.30;10.37;;;;;;;;;;2610478;54;20396;-74
2023/08/26 20:15:15;;;;;;;10.60;9.73;;;;;;;;;;2610376;31;21146;-74
2023/08/26 20:20:44;;;;;;;10.23;9.43;;;;;;;;;;2609749;54;20482;-71
2023/08/26 20:26:14;;;;;;;8.83;8.20;;;;;;;;;;2610425;54;20492;-75
2023/08/26 20:31:44;;;;;;;9.87;9.13;;;;;;;;;;2612808;54;20375;-73
2023/08/26 20:37:13;;;;;;;10.07;9.27;;;;;;;;;;2614449;54;20467;-75
2023/08/26 20:42:44;;;;;;;8.20;7.60;;;;;;;;;;2614680;54;20467;-71
2023/08/26 20:48:14;;;;;;;9.27;8.43;;;;;;;;;;2612007;39;20864;-70
2023/08/26 20:53:44;;;;;;;8.97;8.10;;;;;;;;;;2613590;46;20398;-70
2023/08/26 20:59:14;;;;;;;9.60;8.70;;;;;;;;;;2612216;54;20378;-72
2023/08/26 21:04:44;;;;;;;8.60;7.90;;;;;;;;;;2611948;54;20419;-70
2023/08/26 21:10:14;;;;;;;8.37;7.77;;;;;;;;;;2611641;54;20447;-73
2023/08/26 21:15:47;;;;;;;9.30;8.50;;;;;;;;;;2612835;54;20382;-75
2023/08/26 21:21:16;;;;;;;11.00;9.27;;;;;;;;;;2612323;54;20418;-71
2023/08/26 21:26:47;;;;;;;9.60;8.70;;;;;;;;;;2612178;54;20390;-73
2023/08/26 21:32:16;;;;;;;10.23;9.33;;;;;;;;;;2612370;54;20506;-68
2023/08/26 21:37:46;;;;;;;8.60;7.90;;;;;;;;;;2612638;39;20743;-71
2023/08/26 21:49:25;;;;;;;9.00;8.17;;;;;;;;;;2614852;54;20346;-70
2023/08/26 21:54:55;;;;;;;9.60;8.70;;;;;;;;;;2611526;54;21037;-77
2023/08/26 22:00:24;;;;;;;8.20;6.73;;;;;;;;;;2611450;54;20391;-73
2023/08/26 22:05:54;;;;;;;8.63;7.20;;;;;;;;;;2611304;54;20366;-74
2023/08/26 22:11:24;;;;;;;8.40;6.70;;;;;;;;;;2611732;54;20407;-73
2023/08/26 22:16:54;;;;;;;11.13;5.60;;;;;;;;;;2611063;54;20927;-73
2023/08/26 22:22:23;;;;;;;7.30;6.60;;;;;;;;;;2611234;54;20374;-72
2023/08/26 22:27:54;;;;;;;7.33;6.17;;;;;;;;;;2611414;54;20399;-72
2023/08/26 22:33:23;;;;;;;7.77;6.80;;;;;;;;;;2612436;39;20715;-74
2023/08/26 22:38:53;;;;;;;7.40;6.60;;;;;;;;;;2611740;39;21183;-74
2023/08/26 22:48:00;;;;;;;7.10;6.40;;;;;;;;;;2611696;54;20361;-73
2023/08/26 22:53:29;;;;;;;11.47;6.77;;;;;;;;;;2611215;54;20358;-74
2023/08/26 22:58:59;;;;;;;8.50;7.80;;;;;;;;;;2611086;54;20363;-73
2023/08/26 23:04:29;;;;;;;7.37;6.67;;;;;;;;;;2611551;54;20363;-73
2023/08/26 23:10:00;;;;;;;10.13;7.80;;;;;;;;;;2611121;54;20386;-73
2023/08/26 23:15:29;;;;;;;8.23;6.63;;;;;;;;;;2611620;54;20359;-73
2023/08/26 23:20:59;;;;;;;8.73;8.03;;;;;;;;;;2611437;54;20423;-74
2023/08/26 23:26:29;;;;;;;8.53;7.63;;;;;;;;;;2612779;54;20351;-74
2023/08/26 23:31:58;;;;;;;8.10;7.20;;;;;;;;;;2611205;54;20391;-73
2023/08/26 23:37:27;;;;;;;8.47;6.90;;;;;;;;;;2612352;54;20491;-73
2023/08/26 23:42:57;;;;;;;6.20;5.70;;;;;;;;;;2610630;54;20391;-73
2023/08/26 23:48:27;;;;;;;7.80;7.00;;;;;;;;;;2612447;54;20450;-72
2023/08/26 23:53:57;;;;;;;7.70;7.20;;;;;;;;;;2614354;54;20485;-73
2023/08/26 23:59:26;;;;;;;7.03;6.47;;;;;;;;;;2614307;54;20398;-73
